createdAt,value
2024-03-16T00:00:13.542Z,6.97
2024-03-16T00:02:40.984Z,6.53
2024-03-16T00:05:09.677Z,5.55
2024-03-16T00:07:37.205Z,7.25
2024-03-16T00:10:04.779Z,7.47
2024-03-16T00:12:32.216Z,5.60
2024-03-16T00:14:59.620Z,6.65
2024-03-16T00:17:26.969Z,6.55
2024-03-16T00:19:54.404Z,5.85
2024-03-16T00:22:22.764Z,5.47
2024-03-16T00:24:51.032Z,6.28
2024-03-16T00:29:47.060Z,6.55
2024-03-16T00:32:14.448Z,7.18
2024-03-16T00:34:41.830Z,6.65
2024-03-16T00:37:10.285Z,7.57
2024-03-16T00:39:37.754Z,9.32
2024-03-16T00:42:05.175Z,10.10
2024-03-16T00:44:32.561Z,7.30
2024-03-16T00:46:59.942Z,7.30
2024-03-16T00:49:27.437Z,7.35
2024-03-16T00:51:54.857Z,8.15
2024-03-16T00:54:22.299Z,8.02
2024-03-16T00:56:51.536Z,7.80
2024-03-16T00:59:19.262Z,7.00
2024-03-16T01:01:46.710Z,7.18
2024-03-16T01:04:14.194Z,8.27
2024-03-16T01:06:41.762Z,6.43
2024-03-16T01:09:09.223Z,5.07
2024-03-16T01:11:39.012Z,7.05
2024-03-16T01:14:06.484Z,8.15
2024-03-16T01:16:33.872Z,5.85
2024-03-16T01:19:01.295Z,6.97
2024-03-16T01:21:28.845Z,6.47
2024-03-16T01:23:56.245Z,6.93
2024-03-16T01:26:24.014Z,7.88
2024-03-16T01:28:51.944Z,8.45
2024-03-16T01:31:19.307Z,8.02
2024-03-16T01:33:46.798Z,7.18
2024-03-16T01:36:15.517Z,6.88
2024-03-16T01:38:43.136Z,5.93
2024-03-16T01:41:10.570Z,6.63
2024-03-16T01:43:38.020Z,9.50
2024-03-16T01:46:05.820Z,6.85
2024-03-16T01:48:33.355Z,6.38
2024-03-16T01:51:01.273Z,6.43
2024-03-16T01:53:28.696Z,9.10
2024-03-16T01:55:56.105Z,9.52
2024-03-16T01:58:23.465Z,9.00
2024-03-16T02:00:50.969Z,8.15
2024-03-16T02:03:18.385Z,8.02
2024-03-16T02:05:47.784Z,8.93
2024-03-16T02:08:17.344Z,7.72
2024-03-16T02:10:44.853Z,7.57
2024-03-16T02:13:13.009Z,10.32
2024-03-16T02:15:40.536Z,9.55
2024-03-16T02:18:11.195Z,7.78
2024-03-16T02:20:38.890Z,9.60
2024-03-16T02:23:06.277Z,10.18
2024-03-16T02:25:33.730Z,11.32
2024-03-16T02:28:01.239Z,8.48
2024-03-16T02:30:28.770Z,9.57
2024-03-16T02:32:56.285Z,9.65
2024-03-16T02:35:24.385Z,9.75
2024-03-16T02:37:51.788Z,8.43
2024-03-16T02:40:19.305Z,8.73
2024-03-16T02:42:46.763Z,10.00
2024-03-16T02:45:14.169Z,8.02
2024-03-16T02:47:41.572Z,8.55
2024-03-16T02:50:11.759Z,9.13
2024-03-16T02:52:39.198Z,8.35
2024-03-16T02:55:07.024Z,10.40
2024-03-16T02:57:35.515Z,9.30
2024-03-16T03:02:33.177Z,9.48
2024-03-16T03:05:00.580Z,9.77
2024-03-16T03:07:28.678Z,11.00
2024-03-16T03:09:56.079Z,10.18
2024-03-16T03:12:25.907Z,12.25
2024-03-16T03:14:53.356Z,11.38
2024-03-16T03:17:20.813Z,12.48
2024-03-16T03:19:48.201Z,10.75
2024-03-16T03:22:15.637Z,7.95
2024-03-16T03:24:43.119Z,9.82
2024-03-16T03:27:10.922Z,10.18
2024-03-16T03:29:38.320Z,7.75
2024-03-16T03:32:05.882Z,10.27
2024-03-16T03:34:33.321Z,9.05
2024-03-16T03:37:00.759Z,6.50
2024-03-16T03:39:28.168Z,5.35
2024-03-16T03:41:55.756Z,6.68
2024-03-16T03:44:25.664Z,6.03
2024-03-16T03:46:53.472Z,4.63
2024-03-16T03:49:41.574Z,5.32
2024-03-16T03:52:08.981Z,5.82
2024-03-16T03:54:36.522Z,4.60
2024-03-16T03:57:05.770Z,4.30
2024-03-16T03:59:33.315Z,4.93
2024-03-16T04:02:00.772Z,5.38
2024-03-16T04:04:28.160Z,4.05
2024-03-16T04:06:55.511Z,2.58
2024-03-16T04:09:22.882Z,2.78
2024-03-16T04:11:50.195Z,1.88
2024-03-16T04:14:17.615Z,2.65
2024-03-16T04:16:44.974Z,3.05
2024-03-16T04:19:12.410Z,2.80
2024-03-16T04:21:39.937Z,3.90
2024-03-16T04:24:09.807Z,2.47
2024-03-16T04:26:37.205Z,3.65
2024-03-16T04:29:04.475Z,2.63
2024-03-16T04:31:33.365Z,3.22
2024-03-16T04:34:00.766Z,2.20
2024-03-16T04:36:28.200Z,2.33
2024-03-16T04:38:55.564Z,1.73
2024-03-16T04:41:22.885Z,3.05
2024-03-16T04:43:50.260Z,1.92
2024-03-16T04:46:17.748Z,2.00
2024-03-16T04:48:45.279Z,2.15
2024-03-16T04:51:16.072Z,3.17
2024-03-16T04:53:43.511Z,1.75
2024-03-16T04:56:10.866Z,2.30
2024-03-16T04:58:38.218Z,2.00
2024-03-16T05:01:07.019Z,1.92
2024-03-16T05:03:34.471Z,2.25
2024-03-16T05:06:01.861Z,2.75
2024-03-16T05:08:30.935Z,2.15
2024-03-16T05:11:00.344Z,2.20
2024-03-16T05:13:32.646Z,2.22
2024-03-16T05:16:08.025Z,3.25
2024-03-16T05:18:35.686Z,1.90
2024-03-16T05:21:03.046Z,3.38
2024-03-16T05:23:30.383Z,3.10
2024-03-16T05:26:00.503Z,2.20
2024-03-16T05:28:28.234Z,1.60
2024-03-16T05:30:56.259Z,2.38
2024-03-16T05:33:23.623Z,2.33
2024-03-16T05:35:50.979Z,2.45
2024-03-16T05:38:18.286Z,2.03
2024-03-16T05:40:47.402Z,1.73
2024-03-16T05:43:14.825Z,2.08
2024-03-16T05:45:42.810Z,1.42
2024-03-16T05:48:10.282Z,1.30
2024-03-16T05:50:37.709Z,1.40
2024-03-16T05:53:07.577Z,0.95
2024-03-16T05:55:34.915Z,1.50
2024-03-16T05:58:02.375Z,1.00
2024-03-16T06:00:30.825Z,1.83
2024-03-16T06:02:58.175Z,1.80
2024-03-16T06:05:25.531Z,1.48
2024-03-16T06:07:52.835Z,1.45
2024-03-16T06:10:20.166Z,1.60
2024-03-16T06:12:47.601Z,1.77
2024-03-16T06:15:14.934Z,2.35
2024-03-16T06:17:42.273Z,1.80
2024-03-16T06:20:12.014Z,0.93
2024-03-16T06:22:39.359Z,1.90
2024-03-16T06:25:07.233Z,0.88
2024-03-16T06:27:41.670Z,1.08
2024-03-16T06:30:09.206Z,0.95
2024-03-16T06:32:40.006Z,1.50
2024-03-16T06:35:07.530Z,1.52
2024-03-16T06:37:38.321Z,1.02
2024-03-16T06:40:06.267Z,1.30
2024-03-16T06:42:33.670Z,1.10
2024-03-16T06:45:01.368Z,1.35
2024-03-16T06:47:29.093Z,1.65
2024-03-16T06:49:56.549Z,2.15
2024-03-16T06:52:25.906Z,1.35
2024-03-16T06:54:56.104Z,1.58
2024-03-16T06:57:23.453Z,1.65
2024-03-16T06:59:50.794Z,0.95
2024-03-16T07:02:18.234Z,1.15
2024-03-16T07:04:46.173Z,1.25
2024-03-16T07:07:13.560Z,1.33
2024-03-16T07:09:41.028Z,1.55
2024-03-16T07:12:08.659Z,0.80
2024-03-16T07:14:35.986Z,1.17
2024-03-16T07:17:04.032Z,1.70
2024-03-16T07:19:32.182Z,2.20
2024-03-16T07:24:28.062Z,1.95
2024-03-16T07:26:55.506Z,1.40
2024-03-16T07:29:22.922Z,1.35
2024-03-16T07:31:52.727Z,2.33
2024-03-16T07:34:20.478Z,1.42
2024-03-16T07:36:47.881Z,1.33
2024-03-16T07:39:15.211Z,1.48
2024-03-16T07:41:42.545Z,1.38
2024-03-16T07:44:09.830Z,1.13
2024-03-16T07:46:37.202Z,1.50
2024-03-16T07:49:09.433Z,2.22
2024-03-16T07:51:37.969Z,1.35
2024-03-16T07:54:05.500Z,1.73
2024-03-16T07:56:32.830Z,1.40
2024-03-16T07:59:00.147Z,1.92
2024-03-16T08:01:27.585Z,3.03
2024-03-16T08:03:54.962Z,1.85
2024-03-16T08:06:23.039Z,1.88
2024-03-16T08:08:51.409Z,3.28
2024-03-16T08:11:18.814Z,3.53
2024-03-16T08:13:46.793Z,1.77
2024-03-16T08:16:14.233Z,1.90
2024-03-16T08:18:41.636Z,1.33
2024-03-16T08:21:09.400Z,2.03
2024-03-16T08:23:36.783Z,1.77
2024-03-16T08:26:07.190Z,1.95
2024-03-16T08:28:34.968Z,3.15
2024-03-16T08:31:02.426Z,2.15
2024-03-16T08:33:29.808Z,1.90
2024-03-16T08:35:57.240Z,1.73
2024-03-16T08:38:25.468Z,1.75
2024-03-16T08:40:53.366Z,2.38
2024-03-16T08:43:20.818Z,1.83
2024-03-16T08:45:48.354Z,3.28
2024-03-16T08:48:15.800Z,2.25
2024-03-16T08:50:43.272Z,2.15
2024-03-16T08:53:10.631Z,1.27
2024-03-16T08:55:40.615Z,1.92
2024-03-16T08:58:09.315Z,2.58
2024-03-16T09:00:37.103Z,2.45
2024-03-16T09:03:06.162Z,2.15
2024-03-16T09:05:35.148Z,2.20
2024-03-16T09:08:02.700Z,2.30
2024-03-16T09:10:30.200Z,2.50
2024-03-16T09:12:57.568Z,4.95
2024-03-16T09:15:24.876Z,1.40
2024-03-16T09:17:52.238Z,2.63
2024-03-16T09:20:19.625Z,2.30
2024-03-16T09:22:47.098Z,2.47
2024-03-16T09:25:14.601Z,2.83
2024-03-16T09:27:42.240Z,2.45
2024-03-16T09:30:10.146Z,2.42
2024-03-16T09:32:38.375Z,3.35
2024-03-16T09:35:08.027Z,1.92
2024-03-16T09:37:35.348Z,3.40
2024-03-16T09:40:02.972Z,4.15
2024-03-16T09:42:31.950Z,2.47
